Time;durP1;ratioP1;P1;durP2;ratioP2;P2;SDS_P1;SDS_P2;PMS_P1;PMS_P2;Temp;Humidity;BMP_temperature;BMP_pressure;BME280_temperature;BME280_humidity;BME280_pressure;Samples;Min_cycle;Max_cycle;Signal;HPM_P1;HPM_P2
2022/01/01 00:01:55;;;;;;;0.10;0.10;;;10.70;99.90;;;;;;4974461;28;20580;-64
2022/01/01 00:04:21;;;;;;;0.10;0.10;;;10.70;99.90;;;;;;5005505;28;20057;-65
2022/01/01 00:06:47;;;;;;;0.00;0.00;;;11.20;99.90;;;;;;5018701;28;20061;-65
2022/01/01 00:09:12;;;;;;;0.20;0.20;;;10.70;99.90;;;;;;5020563;28;20882;-64
2022/01/01 00:11:38;;;;;;;0.08;0.08;;;10.70;99.90;;;;;;4942702;28;20052;-64
2022/01/01 00:14:04;;;;;;;0.10;0.10;;;10.80;99.90;;;;;;4922003;29;20516;-65
2022/01/01 00:16:29;;;;;;;0.17;0.15;;;10.70;99.90;;;;;;4940602;28;20047;-63
2022/01/01 00:18:55;;;;;;;1.08;0.95;;;10.70;99.90;;;;;;4939154;28;20113;-63
2022/01/01 00:21:21;;;;;;;0.03;0.03;;;11.00;99.90;;;;;;4940629;28;20050;-66
2022/01/01 00:23:47;;;;;;;0.55;0.22;;;10.70;99.90;;;;;;4939089;28;20531;-63
2022/01/01 00:26:14;;;;;;;0.70;0.55;;;10.70;99.90;;;;;;4940182;28;20055;-63
2022/01/01 00:28:40;;;;;;;0.52;0.52;;;11.80;99.90;;;;;;4933766;28;20121;-64
2022/01/01 00:31:07;;;;;;;0.00;0.00;;;10.80;99.90;;;;;;4924696;29;20525;-64
2022/01/01 00:33:33;;;;;;;0.93;0.47;;;11.30;99.90;;;;;;4919641;28;20055;-64
2022/01/01 00:35:59;;;;;;;0.10;0.10;;;11.60;99.90;;;;;;4921498;29;20050;-63
2022/01/01 00:38:24;;;;;;;0.10;0.10;;;10.60;99.90;;;;;;4919866;28;20696;-64
2022/01/01 00:40:51;;;;;;;0.13;0.13;;;11.00;99.90;;;;;;4919816;28;20552;-63
2022/01/01 00:43:16;;;;;;;0.32;0.20;;;10.90;99.90;;;;;;4918704;28;20449;-64
2022/01/01 00:45:42;;;;;;;0.20;0.20;;;10.90;99.90;;;;;;4919797;29;20044;-64
2022/01/01 00:48:08;;;;;;;0.13;0.13;;;11.10;99.90;;;;;;4919741;29;20050;-64
2022/01/01 00:50:33;;;;;;;0.10;0.10;;;10.60;99.90;;;;;;4921228;29;20091;-64
2022/01/01 00:52:59;;;;;;;0.10;0.10;;;10.60;99.90;;;;;;4919630;29;20090;-64
2022/01/01 00:55:25;;;;;;;0.82;0.22;;;10.70;99.90;;;;;;4919633;28;20059;-64
2022/01/01 00:57:50;;;;;;;0.98;0.43;;;10.70;99.90;;;;;;4920083;29;20735;-64
2022/01/01 01:00:16;;;;;;;1.67;0.22;;;10.70;99.90;;;;;;4920969;28;20055;-64
2022/01/01 01:02:42;;;;;;;0.75;0.70;;;10.70;99.90;;;;;;4918798;29;20678;-64
2022/01/01 01:05:08;;;;;;;0.45;0.22;;;10.80;99.90;;;;;;4920952;29;20075;-64
2022/01/01 01:07:34;;;;;;;0.35;0.35;;;10.70;99.90;;;;;;4919159;28;20450;-64
2022/01/01 01:09:59;;;;;;;0.60;0.60;;;10.90;99.90;;;;;;4920032;29;20089;-65
2022/01/01 01:12:34;;;;;;;0.00;0.00;;;11.50;99.90;;;;;;4917370;29;20058;-64
2022/01/01 01:15:00;;;;;;;0.00;0.00;;;10.80;99.90;;;;;;4918928;29;20064;-63
2022/01/01 01:17:25;;;;;;;0.20;0.20;;;11.00;99.90;;;;;;4918380;29;20131;-64
2022/01/01 01:19:51;;;;;;;0.05;0.05;;;10.80;99.90;;;;;;4918092;28;20438;-63
2022/01/01 01:22:16;;;;;;;0.35;0.10;;;10.70;99.90;;;;;;4918494;29;20044;-64
2022/01/01 01:24:42;;;;;;;0.68;0.68;;;10.90;99.90;;;;;;4919611;29;20052;-64
2022/01/01 01:27:08;;;;;;;0.00;0.00;;;11.30;99.90;;;;;;4918970;28;20098;-64
2022/01/01 01:29:37;;;;;;;0.98;0.35;;;10.70;99.90;;;;;;4936176;28;20070;-64
2022/01/01 01:32:03;;;;;;;0.20;0.20;;;10.70;99.90;;;;;;4922441;29;20044;-64
2022/01/01 01:34:29;;;;;;;0.90;0.63;;;10.80;99.90;;;;;;4923104;28;20113;-64
2022/01/01 01:36:55;;;;;;;0.60;0.60;;;10.70;99.90;;;;;;4921050;29;20509;-63
2022/01/01 01:39:20;;;;;;;0.55;0.30;;;10.70;99.90;;;;;;4905114;29;20130;-64
2022/01/01 01:41:46;;;;;;;2.72;2.53;;;10.60;99.90;;;;;;4921152;28;20143;-64
2022/01/01 01:44:25;;;;;;;1.42;0.55;;;10.70;99.90;;;;;;4922106;29;20105;-63
2022/01/01 01:46:51;;;;;;;0.00;0.00;;;10.70;99.90;;;;;;4920773;28;20048;-63
2022/01/01 01:49:17;;;;;;;0.10;0.10;;;10.60;99.90;;;;;;4922153;29;20502;-64
2022/01/01 01:51:42;;;;;;;1.35;0.50;;;10.60;99.90;;;;;;4921139;29;20158;-64
2022/01/01 01:54:10;;;;;;;0.35;0.20;;;10.70;99.90;;;;;;4920938;28;20052;-64
2022/01/01 01:56:37;;;;;;;0.10;0.10;;;10.60;99.90;;;;;;4922547;28;20039;-64
2022/01/01 01:59:03;;;;;;;0.35;0.35;;;10.60;99.90;;;;;;4921592;29;20134;-65
2022/01/01 02:01:29;;;;;;;0.10;0.10;;;10.70;99.90;;;;;;4922599;29;20059;-64
2022/01/01 02:03:56;;;;;;;0.20;0.17;;;10.60;99.90;;;;;;4920390;29;20130;-63
2022/01/01 02:06:24;;;;;;;0.20;0.20;;;11.60;99.90;;;;;;4884954;29;1096471;-64
2022/01/01 02:08:51;;;;;;;0.70;0.30;;;11.40;99.90;;;;;;4923486;28;20779;-63
2022/01/01 02:18:48;;;;;;;0.43;0.43;;;10.50;99.90;;;;;;5054707;28;20070;-59
2022/01/01 02:21:14;;;;;;;0.00;0.00;;;10.50;99.90;;;;;;5063004;28;20098;-59
2022/01/01 02:23:43;;;;;;;0.32;0.15;;;10.50;99.90;;;;;;5063470;28;20468;-58
2022/01/01 02:26:11;;;;;;;0.20;0.20;;;10.50;99.90;;;;;;5063596;28;20442;-58
2022/01/01 02:28:40;;;;;;;0.30;0.30;;;10.50;99.90;;;;;;5055463;28;20646;-58
2022/01/01 02:31:06;;;;;;;0.00;0.00;;;10.50;99.90;;;;;;5048089;28;20458;-58
2022/01/01 02:33:32;;;;;;;0.80;0.52;;;10.50;99.90;;;;;;5042234;28;20087;-59
2022/01/01 02:35:58;;;;;;;1.02;0.73;;;10.50;99.90;;;;;;5043534;28;20534;-58
2022/01/01 02:38:24;;;;;;;0.45;0.25;;;10.70;99.90;;;;;;5057812;28;20048;-59
2022/01/01 02:40:49;;;;;;;0.08;0.08;;;10.50;99.90;;;;;;5042008;28;20045;-58
2022/01/01 02:43:17;;;;;;;0.20;0.20;;;10.50;99.90;;;;;;5042520;28;20041;-58
2022/01/01 02:45:42;;;;;;;0.20;0.13;;;10.50;99.90;;;;;;5042922;28;20045;-59
2022/01/01 02:48:08;;;;;;;0.13;0.13;;;10.50;99.90;;;;;;5042893;28;20060;-58
2022/01/01 02:50:34;;;;;;;0.30;0.30;;;10.50;99.90;;;;;;5043123;28;20056;-59
2022/01/01 02:52:59;;;;;;;0.00;0.00;;;10.50;99.90;;;;;;5042044;28;20087;-59
2022/01/01 02:55:25;;;;;;;0.47;0.38;;;10.50;99.90;;;;;;5042569;28;20092;-58
2022/01/01 02:57:51;;;;;;;0.20;0.20;;;10.50;99.90;;;;;;5042140;28;20122;-58
2022/01/01 03:00:17;;;;;;;1.13;0.57;;;10.50;99.90;;;;;;5042745;28;20049;-59
2022/01/01 03:02:45;;;;;;;0.25;0.25;;;10.50;99.90;;;;;;5042841;28;20159;-58
2022/01/01 03:05:10;;;;;;;2.28;1.75;;;10.50;99.90;;;;;;5040963;28;20060;-58
2022/01/01 03:07:36;;;;;;;0.70;0.22;;;10.50;99.90;;;;;;5042817;28;20040;-58
2022/01/01 03:10:03;;;;;;;0.00;0.00;;;10.60;99.90;;;;;;5041447;28;20056;-58
2022/01/01 03:12:29;;;;;;;0.43;0.43;;;10.60;99.90;;;;;;5041894;28;20063;-58
2022/01/01 03:14:55;;;;;;;0.20;0.10;;;10.60;99.90;;;;;;5041633;28;20532;-58
2022/01/01 03:17:20;;;;;;;0.00;0.00;;;10.70;99.90;;;;;;5042420;28;20124;-59
2022/01/01 03:19:46;;;;;;;1.55;0.55;;;10.60;99.90;;;;;;5042492;28;20483;-59
2022/01/01 03:22:11;;;;;;;0.20;0.20;;;10.60;99.90;;;;;;5041268;28;20068;-58
2022/01/01 03:24:37;;;;;;;0.10;0.10;;;10.70;99.90;;;;;;5040096;28;20043;-58
2022/01/01 03:27:03;;;;;;;0.10;0.10;;;11.50;99.90;;;;;;5041183;28;20041;-59
2022/01/01 03:29:30;;;;;;;0.32;0.30;;;10.70;99.90;;;;;;5053809;28;20051;-58
2022/01/01 03:31:57;;;;;;;0.00;0.00;;;10.70;99.90;;;;;;5042004;28;20064;-58
2022/01/01 03:34:22;;;;;;;0.10;0.10;;;10.70;99.90;;;;;;5041809;28;20068;-58
2022/01/01 03:36:48;;;;;;;0.00;0.00;;;10.70;99.90;;;;;;5041958;28;20072;-59
2022/01/01 03:39:14;;;;;;;0.95;0.38;;;10.70;99.90;;;;;;5042052;28;20679;-59
2022/01/01 03:41:39;;;;;;;0.70;0.20;;;11.50;99.90;;;;;;5041374;28;20077;-58
2022/01/01 03:44:05;;;;;;;0.10;0.10;;;10.60;99.90;;;;;;5056558;28;20088;-58
2022/01/01 03:46:31;;;;;;;0.00;0.00;;;10.70;99.90;;;;;;5042149;28;20102;-58
2022/01/01 03:48:56;;;;;;;0.00;0.00;;;10.70;99.90;;;;;;5041739;28;20047;-58
2022/01/01 03:51:22;;;;;;;0.00;0.00;;;10.60;99.90;;;;;;5039293;28;20293;-58
2022/01/01 03:53:48;;;;;;;0.13;0.13;;;10.70;99.90;;;;;;5041703;28;20036;-58
2022/01/01 03:56:14;;;;;;;0.17;0.13;;;10.70;99.90;;;;;;5041719;28;20045;-58
2022/01/01 03:58:41;;;;;;;0.10;0.10;;;10.70;99.90;;;;;;5040984;28;20128;-58
2022/01/01 04:01:07;;;;;;;0.25;0.17;;;10.80;99.90;;;;;;5040962;28;20041;-58
2022/01/01 04:03:32;;;;;;;0.03;0.03;;;10.70;99.90;;;;;;5041982;28;20067;-60
2022/01/01 04:05:58;;;;;;;5.88;0.90;;;10.90;99.90;;;;;;5042101;28;20713;-58
2022/01/01 04:08:24;;;;;;;0.22;0.13;;;10.60;99.90;;;;;;5040490;28;20135;-58
2022/01/01 04:10:49;;;;;;;0.32;0.32;;;10.60;99.90;;;;;;5040886;28;20052;-59
2022/01/01 04:13:15;;;;;;;0.90;0.75;;;10.60;99.90;;;;;;5040592;28;20547;-58
2022/01/01 04:15:42;;;;;;;1.38;1.27;;;10.60;99.90;;;;;;5041122;28;20041;-60
2022/01/01 04:18:13;;;;;;;0.40;0.40;;;10.60;99.90;;;;;;5041636;28;20045;-58
2022/01/01 04:20:41;;;;;;;0.10;0.10;;;10.60;99.90;;;;;;5040123;28;20045;-58
2022/01/01 04:23:09;;;;;;;1.08;0.30;;;11.00;99.90;;;;;;5041258;28;20136;-58
2022/01/01 04:25:35;;;;;;;0.63;0.57;;;10.60;99.90;;;;;;5041278;28;20282;-59
2022/01/01 04:28:01;;;;;;;0.20;0.13;;;10.60;99.90;;;;;;5042544;28;20049;-59
2022/01/01 04:30:29;;;;;;;0.10;0.10;;;10.50;99.90;;;;;;5048666;28;20412;-58
2022/01/01 04:32:58;;;;;;;0.65;0.60;;;10.50;99.90;;;;;;5041349;28;20052;-58
2022/01/01 04:35:24;;;;;;;0.63;0.43;;;10.80;99.90;;;;;;5055848;28;20049;-58
2022/01/01 04:37:50;;;;;;;0.80;0.77;;;10.60;99.90;;;;;;5041073;28;20127;-58
2022/01/01 04:40:16;;;;;;;0.20;0.20;;;10.60;99.90;;;;;;5039898;28;20653;-58
2022/01/01 04:42:42;;;;;;;0.03;0.03;;;10.60;99.90;;;;;;5040362;28;20396;-58
2022/01/01 04:45:08;;;;;;;0.10;0.10;;;11.50;99.90;;;;;;5040517;28;20053;-58
2022/01/01 04:47:34;;;;;;;0.08;0.08;;;10.50;99.90;;;;;;5041089;28;20051;-59
2022/01/01 04:50:02;;;;;;;0.57;0.38;;;10.50;99.90;;;;;;5041345;28;20049;-58
2022/01/01 04:52:28;;;;;;;0.30;0.20;;;10.60;99.90;;;;;;5041384;28;20053;-58
2022/01/01 04:54:54;;;;;;;0.95;0.50;;;10.60;99.90;;;;;;5040441;28;20091;-58
2022/01/01 04:57:19;;;;;;;1.33;0.63;;;10.60;99.90;;;;;;5039879;28;20037;-58
2022/01/01 04:59:45;;;;;;;1.02;1.02;;;10.60;99.90;;;;;;5041195;28;20924;-58
2022/01/01 05:02:11;;;;;;;0.38;0.10;;;10.60;99.90;;;;;;5041129;28;20048;-58
2022/01/01 05:04:38;;;;;;;6.38;1.35;;;10.60;99.90;;;;;;5025005;28;20075;-58
2022/01/01 05:07:05;;;;;;;0.43;0.25;;;10.60;99.90;;;;;;5044831;28;20056;-59
2022/01/01 05:09:31;;;;;;;0.10;0.10;;;10.60;99.90;;;;;;5027198;28;20056;-59
2022/01/01 05:11:57;;;;;;;0.47;0.47;;;10.60;99.90;;;;;;5043192;28;20057;-58
2022/01/01 05:14:22;;;;;;;0.10;0.10;;;10.50;99.90;;;;;;5044945;28;20122;-58
2022/01/01 05:16:51;;;;;;;1.58;0.60;;;10.50;99.90;;;;;;5044573;28;20045;-60
2022/01/01 05:19:17;;;;;;;0.80;0.45;;;11.70;99.90;;;;;;5043298;28;20045;-58
2022/01/01 05:21:42;;;;;;;0.45;0.40;;;10.50;99.90;;;;;;5043945;28;20041;-59
2022/01/01 05:24:08;;;;;;;0.30;0.28;;;10.50;99.90;;;;;;5044956;28;20041;-58
2022/01/01 05:26:34;;;;;;;0.45;0.45;;;10.50;99.90;;;;;;5043775;28;20572;-59
2022/01/01 05:29:00;;;;;;;1.00;0.38;;;10.40;99.90;;;;;;5053630;28;20122;-58
2022/01/01 05:31:26;;;;;;;0.95;0.40;;;10.50;99.90;;;;;;5045664;28;20076;-58
2022/01/01 05:33:53;;;;;;;0.30;0.30;;;10.40;99.90;;;;;;5044479;28;20049;-58
2022/01/01 05:36:19;;;;;;;0.25;0.25;;;10.50;99.90;;;;;;5044184;28;20599;-58
2022/01/01 05:38:46;;;;;;;0.40;0.30;;;10.40;99.90;;;;;;5044010;28;20080;-59
2022/01/01 05:41:12;;;;;;;0.35;0.35;;;10.40;99.90;;;;;;5043734;28;20033;-59
2022/01/01 05:43:38;;;;;;;0.77;0.60;;;10.40;99.90;;;;;;5043876;28;20033;-58
2022/01/01 05:46:04;;;;;;;0.55;0.47;;;10.40;99.90;;;;;;5044072;28;20095;-58
2022/01/01 05:48:30;;;;;;;0.98;0.65;;;10.40;99.90;;;;;;5043933;28;20040;-58
2022/01/01 05:50:56;;;;;;;0.93;0.93;;;10.20;99.90;;;;;;5043876;28;20053;-58
2022/01/01 05:53:22;;;;;;;0.95;0.57;;;10.50;99.90;;;;;;5043808;28;20048;-57
2022/01/01 05:55:48;;;;;;;0.95;0.95;;;11.60;99.90;;;;;;5043891;28;20107;-59
2022/01/01 05:58:14;;;;;;;0.47;0.47;;;10.50;99.90;;;;;;5043007;28;20044;-58
2022/01/01 06:00:40;;;;;;;0.88;0.75;;;10.50;99.90;;;;;;5044022;28;20636;-58
2022/01/01 06:03:05;;;;;;;2.80;1.38;;;10.70;99.90;;;;;;5043880;28;20064;-58
2022/01/01 06:05:31;;;;;;;0.30;0.30;;;10.50;99.90;;;;;;5044177;28;20407;-58
2022/01/01 06:07:58;;;;;;;0.10;0.10;;;10.50;99.90;;;;;;5042946;28;20569;-58
2022/01/01 06:10:25;;;;;;;0.32;0.17;;;11.20;99.90;;;;;;5043835;28;20084;-59
2022/01/01 06:12:52;;;;;;;0.30;0.25;;;10.80;99.90;;;;;;5042518;28;20052;-59
2022/01/01 06:15:18;;;;;;;0.55;0.55;;;10.60;99.90;;;;;;5043506;28;20049;-59
2022/01/01 06:17:43;;;;;;;0.68;0.68;;;10.70;99.90;;;;;;5041576;28;20037;-58
2022/01/01 06:20:10;;;;;;;0.28;0.28;;;10.50;99.90;;;;;;5043620;28;20522;-58
2022/01/01 06:22:35;;;;;;;1.20;1.08;;;10.50;99.90;;;;;;5043684;28;20380;-59
2022/01/01 06:25:01;;;;;;;0.68;0.60;;;10.70;99.90;;;;;;5043610;28;20109;-58
2022/01/01 06:27:27;;;;;;;0.45;0.30;;;10.50;99.90;;;;;;5043265;28;20072;-58
2022/01/01 06:29:52;;;;;;;0.65;0.45;;;10.50;99.90;;;;;;5053682;28;20490;-58
2022/01/01 06:32:18;;;;;;;0.45;0.45;;;10.50;99.90;;;;;;5043354;28;20056;-58
2022/01/01 06:34:44;;;;;;;2.50;1.42;;;10.90;99.90;;;;;;5042484;28;20037;-59
2022/01/01 06:37:09;;;;;;;0.75;0.75;;;10.50;99.90;;;;;;5043034;28;20049;-59
2022/01/01 06:39:35;;;;;;;0.40;0.40;;;10.50;99.90;;;;;;5043175;28;20134;-59
2022/01/01 06:42:01;;;;;;;0.40;0.38;;;10.50;99.90;;;;;;5042755;28;20080;-58
2022/01/01 06:44:27;;;;;;;0.05;0.05;;;10.60;99.90;;;;;;5042499;28;20067;-58
2022/01/01 06:46:53;;;;;;;0.00;0.00;;;10.50;99.90;;;;;;5042809;28;20045;-58
2022/01/01 06:49:19;;;;;;;0.45;0.43;;;10.50;99.90;;;;;;5042685;28;20510;-58
2022/01/01 06:51:45;;;;;;;0.75;0.20;;;10.50;99.90;;;;;;5041833;28;20500;-58
2022/01/01 06:54:11;;;;;;;0.10;0.10;;;10.50;99.90;;;;;;5042642;28;20041;-58
2022/01/01 06:56:36;;;;;;;0.20;0.20;;;10.50;99.90;;;;;;5041070;28;20052;-59
2022/01/01 06:59:02;;;;;;;0.00;0.00;;;11.00;99.90;;;;;;5042973;28;20411;-59
2022/01/01 07:01:28;;;;;;;0.00;0.00;;;10.50;99.90;;;;;;5042763;28;20060;-59
2022/01/01 07:03:54;;;;;;;0.35;0.20;;;10.40;99.90;;;;;;5042171;28;20055;-59
2022/01/01 07:06:19;;;;;;;0.30;0.30;;;10.40;99.90;;;;;;5042459;28;20041;-59
2022/01/01 07:08:45;;;;;;;0.30;0.30;;;11.60;99.90;;;;;;5042730;28;20161;-59
2022/01/01 07:11:12;;;;;;;0.00;0.00;;;10.40;99.90;;;;;;5042323;28;20583;-59
2022/01/01 07:13:38;;;;;;;1.02;0.55;;;10.40;99.90;;;;;;5039828;28;20132;-59
2022/01/01 07:16:04;;;;;;;2.20;0.75;;;10.40;99.90;;;;;;5042546;28;20092;-60
2022/01/01 07:18:30;;;;;;;0.52;0.52;;;10.40;99.90;;;;;;5058238;28;20557;-59
2022/01/01 07:20:56;;;;;;;1.33;1.23;;;10.40;99.90;;;;;;5041963;28;20091;-59
2022/01/01 07:23:22;;;;;;;0.20;0.20;;;10.40;99.90;;;;;;5042025;28;20119;-59
2022/01/01 07:25:47;;;;;;;0.00;0.00;;;10.40;99.90;;;;;;5041956;28;20056;-59
2022/01/01 07:28:16;;;;;;;0.03;0.03;;;10.40;99.90;;;;;;5053877;28;20041;-59
2022/01/01 07:30:45;;;;;;;0.10;0.10;;;10.40;99.90;;;;;;5049329;28;20041;-59
2022/01/01 07:33:15;;;;;;;0.00;0.00;;;10.40;99.90;;;;;;5042215;28;20045;-59
2022/01/01 07:35:41;;;;;;;0.10;0.10;;;10.40;99.90;;;;;;5041812;28;20045;-60
2022/01/01 07:38:07;;;;;;;2.92;0.47;;;10.60;99.90;;;;;;5042068;28;20044;-59
2022/01/01 07:40:34;;;;;;;0.10;0.10;;;10.40;99.90;;;;;;5041920;28;20052;-59
2022/01/01 07:43:14;;;;;;;0.80;0.43;;;10.40;99.90;;;;;;5041518;28;20048;-59
2022/01/01 07:45:41;;;;;;;0.55;0.20;;;10.40;99.90;;;;;;5041826;28;20094;-59
2022/01/01 07:48:08;;;;;;;2.85;1.08;;;10.40;99.90;;;;;;5041730;28;20052;-59
2022/01/01 07:50:34;;;;;;;0.22;0.10;;;10.40;99.90;;;;;;5040392;28;20045;-59
2022/01/01 07:52:59;;;;;;;0.00;0.00;;;10.40;99.90;;;;;;5042114;28;20037;-59
2022/01/01 07:55:25;;;;;;;0.00;0.00;;;10.40;99.90;;;;;;5039782;28;20068;-59
2022/01/01 07:57:50;;;;;;;1.17;0.55;;;10.40;99.90;;;;;;5040963;28;20109;-59
2022/01/01 08:00:16;;;;;;;0.05;0.05;;;10.40;99.90;;;;;;5040130;28;20041;-60
2022/01/01 08:02:43;;;;;;;0.00;0.00;;;10.40;99.90;;;;;;5041390;28;20726;-59
2022/01/01 08:05:10;;;;;;;0.68;0.20;;;10.60;99.90;;;;;;5041064;28;20056;-59
2022/01/01 08:07:36;;;;;;;0.00;0.00;;;10.40;99.90;;;;;;5041521;28;20041;-59
2022/01/01 08:10:02;;;;;;;0.00;0.00;;;10.40;99.90;;;;;;5040336;28;20056;-59
2022/01/01 08:12:28;;;;;;;0.28;0.28;;;10.50;99.90;;;;;;5040373;28;20052;-59
2022/01/01 08:14:56;;;;;;;0.20;0.20;;;11.40;99.90;;;;;;5040677;28;20055;-59
2022/01/01 08:17:23;;;;;;;0.52;0.52;;;10.50;99.90;;;;;;5041239;28;20056;-59
2022/01/01 08:19:48;;;;;;;1.27;0.88;;;10.50;99.90;;;;;;5041213;28;20037;-59
2022/01/01 08:22:14;;;;;;;0.40;0.40;;;11.40;99.90;;;;;;5041118;28;20059;-59
2022/01/01 08:24:41;;;;;;;0.00;0.00;;;10.60;99.90;;;;;;5056639;28;20128;-60
2022/01/01 08:27:07;;;;;;;0.00;0.00;;;10.60;99.90;;;;;;5040829;28;20431;-58
2022/01/01 08:29:33;;;;;;;0.85;0.30;;;10.60;99.90;;;;;;5049509;28;20137;-59
2022/01/01 08:31:59;;;;;;;0.00;0.00;;;10.80;99.90;;;;;;5060722;28;20151;-59
2022/01/01 08:34:25;;;;;;;0.00;0.00;;;10.70;99.90;;;;;;5061233;28;20053;-58
2022/01/01 08:36:51;;;;;;;0.25;0.22;;;10.70;99.90;;;;;;5060133;28;20096;-59
2022/01/01 08:39:16;;;;;;;1.27;0.80;;;10.70;99.90;;;;;;5060441;28;20059;-60
2022/01/01 08:41:43;;;;;;;0.10;0.10;;;10.80;99.90;;;;;;5059800;28;20045;-60
2022/01/01 08:44:09;;;;;;;0.10;0.10;;;10.80;99.90;;;;;;5061109;28;20076;-59
2022/01/01 08:46:35;;;;;;;0.00;0.00;;;10.80;99.90;;;;;;5060741;28;20087;-60
2022/01/01 08:49:03;;;;;;;0.00;0.00;;;10.80;99.90;;;;;;5061350;28;20045;-60
2022/01/01 08:51:29;;;;;;;0.00;0.00;;;10.80;99.90;;;;;;5060882;28;20058;-59
2022/01/01 08:53:55;;;;;;;0.08;0.08;;;10.90;99.90;;;;;;5061082;28;20119;-59
2022/01/01 08:56:20;;;;;;;1.35;0.60;;;10.90;99.90;;;;;;5050886;28;20579;-59
2022/01/01 08:58:46;;;;;;;0.28;0.28;;;11.00;99.90;;;;;;5039211;28;20118;-59
2022/01/01 09:01:12;;;;;;;0.22;0.22;;;11.00;99.90;;;;;;5039300;28;20049;-59
2022/01/01 09:03:38;;;;;;;0.00;0.00;;;11.00;99.90;;;;;;5040926;28;20080;-59
2022/01/01 09:06:05;;;;;;;0.65;0.55;;;11.00;99.90;;;;;;5040656;28;20535;-59
2022/01/01 09:08:32;;;;;;;0.17;0.17;;;11.00;99.90;;;;;;5040631;28;20049;-59
2022/01/01 09:10:58;;;;;;;0.17;0.17;;;11.00;99.90;;;;;;5040239;28;20136;-59
2022/01/01 09:13:24;;;;;;;1.23;1.13;;;11.00;99.90;;;;;;5040372;28;20128;-58
2022/01/01 09:15:49;;;;;;;0.00;0.00;;;11.20;99.90;;;;;;5040717;28;20721;-59
2022/01/01 09:18:15;;;;;;;0.65;0.60;;;11.00;99.90;;;;;;5040142;28;20041;-59
2022/01/01 09:20:41;;;;;;;1.38;0.50;;;11.00;99.90;;;;;;5040665;28;20048;-59
2022/01/01 09:23:07;;;;;;;0.20;0.20;;;11.10;99.90;;;;;;5040408;28;20537;-60
2022/01/01 09:25:33;;;;;;;0.10;0.10;;;11.10;99.90;;;;;;5040986;28;20047;-61
2022/01/01 09:27:59;;;;;;;0.13;0.13;;;12.20;99.90;;;;;;5041840;28;21127;-58
2022/01/01 09:30:24;;;;;;;0.08;0.08;;;12.30;99.90;;;;;;5049326;28;20080;-61
2022/01/01 09:32:51;;;;;;;0.15;0.15;;;11.10;99.90;;;;;;5040497;28;20045;-59
2022/01/01 09:35:18;;;;;;;0.35;0.22;;;11.40;99.90;;;;;;5040670;28;20053;-60
2022/01/01 09:37:44;;;;;;;0.70;0.55;;;11.20;99.90;;;;;;5040273;28;20386;-59
2022/01/01 09:40:11;;;;;;;0.98;0.38;;;11.80;99.90;;;;;;5040755;28;20394;-59
2022/01/01 09:42:39;;;;;;;0.52;0.38;;;11.20;99.90;;;;;;5021844;28;20055;-59
2022/01/01 09:45:09;;;;;;;0.77;0.73;;;11.20;99.90;;;;;;5040067;28;20757;-59
2022/01/01 09:47:35;;;;;;;1.55;0.45;;;11.20;99.90;;;;;;5040650;28;20049;-59
2022/01/01 09:50:04;;;;;;;0.00;0.00;;;11.20;99.90;;;;;;5042250;28;20457;-59
2022/01/01 09:52:29;;;;;;;0.00;0.00;;;11.20;99.90;;;;;;5044621;28;20053;-58
2022/01/01 09:54:55;;;;;;;0.05;0.05;;;11.20;99.90;;;;;;5043467;28;20067;-59
2022/01/01 09:57:22;;;;;;;0.20;0.20;;;11.20;99.90;;;;;;5042941;28;20060;-58
2022/01/01 09:59:48;;;;;;;0.90;0.68;;;11.30;99.90;;;;;;5049294;28;20502;-59
2022/01/01 10:02:13;;;;;;;0.50;0.20;;;11.30;99.90;;;;;;5048404;28;20086;-59
2022/01/01 10:04:44;;;;;;;0.80;0.50;;;11.50;99.90;;;;;;5043514;28;20106;-59
2022/01/01 10:07:11;;;;;;;0.17;0.17;;;11.30;99.90;;;;;;5051788;28;20150;-58
2022/01/01 10:09:37;;;;;;;0.73;0.73;;;11.40;99.90;;;;;;5046086;28;20044;-59
2022/01/01 10:12:09;;;;;;;0.10;0.10;;;11.40;99.90;;;;;;5041622;28;20064;-59
2022/01/01 10:14:35;;;;;;;0.10;0.10;;;11.50;99.90;;;;;;5043821;28;20175;-58
2022/01/01 10:17:21;;;;;;;5.90;0.98;;;11.40;99.90;;;;;;5043870;28;20120;-59
2022/01/01 10:19:52;;;;;;;0.28;0.22;;;11.50;99.90;;;;;;5043473;28;20052;-59
2022/01/01 10:22:20;;;;;;;0.10;0.10;;;11.50;99.90;;;;;;5043315;28;20109;-59
2022/01/01 10:27:47;;;;;;;0.63;0.45;;;12.30;99.90;;;;;;5044199;28;20052;-59
2022/01/01 10:30:19;;;;;;;0.77;0.52;;;12.90;99.90;;;;;;5051976;28;20103;-59
2022/01/01 10:33:06;;;;;;;0.30;0.30;;;11.60;99.90;;;;;;5058404;28;20048;-59
2022/01/01 10:35:36;;;;;;;4.65;1.40;;;12.00;99.90;;;;;;5043635;28;20541;-59
2022/01/01 10:38:20;;;;;;;0.73;0.73;;;11.70;99.90;;;;;;5042900;28;20049;-59
2022/01/01 10:40:46;;;;;;;1.23;0.43;;;12.10;99.90;;;;;;5041347;28;20111;-59
2022/01/01 10:43:15;;;;;;;0.10;0.10;;;12.00;99.90;;;;;;5042341;28;20048;-58
2022/01/01 10:45:47;;;;;;;0.30;0.25;;;11.80;99.90;;;;;;5042818;28;20057;-59
2022/01/01 10:48:24;;;;;;;0.20;0.20;;;11.80;99.90;;;;;;5043152;28;20036;-58
2022/01/01 10:50:51;;;;;;;0.63;0.57;;;11.80;99.90;;;;;;5042396;28;20053;-58
2022/01/01 10:53:23;;;;;;;0.10;0.10;;;11.90;99.90;;;;;;5042991;28;20427;-59
2022/01/01 10:55:51;;;;;;;6.80;1.13;;;11.90;99.90;;;;;;5042241;28;20041;-58
2022/01/01 10:58:20;;;;;;;0.85;0.55;;;11.90;99.90;;;;;;5042229;28;20425;-59
2022/01/01 11:00:47;;;;;;;0.25;0.25;;;11.90;99.90;;;;;;5042090;28;20084;-59
2022/01/01 11:03:19;;;;;;;0.10;0.10;;;13.00;99.90;;;;;;5042243;28;20460;-58
2022/01/01 11:05:46;;;;;;;0.00;0.00;;;11.90;99.90;;;;;;5041926;28;20107;-58
2022/01/01 11:08:13;;;;;;;0.15;0.15;;;11.90;99.90;;;;;;5042519;28;20080;-58
2022/01/01 11:10:41;;;;;;;8.60;1.13;;;12.10;99.90;;;;;;5041669;28;20090;-59
2022/01/01 11:13:08;;;;;;;0.15;0.15;;;11.90;99.90;;;;;;5042375;28;20076;-59
2022/01/01 11:15:34;;;;;;;1.60;1.15;;;11.90;99.90;;;;;;5042098;28;20094;-58
2022/01/01 11:18:01;;;;;;;0.45;0.30;;;12.20;99.90;;;;;;5042615;28;20056;-58
2022/01/01 11:20:33;;;;;;;0.28;0.17;;;12.20;99.90;;;;;;5042077;28;20103;-58
2022/01/01 11:23:03;;;;;;;0.00;0.00;;;12.00;99.90;;;;;;5040809;28;20041;-58
2022/01/01 11:25:29;;;;;;;0.32;0.30;;;13.10;99.90;;;;;;5041250;28;20056;-58
2022/01/01 11:27:55;;;;;;;0.73;0.60;;;12.10;99.90;;;;;;5043747;28;20090;-58
2022/01/01 11:30:28;;;;;;;0.20;0.20;;;12.40;99.90;;;;;;5044768;28;20520;-59
2022/01/01 11:33:03;;;;;;;0.20;0.20;;;12.10;99.90;;;;;;5049521;28;20047;-60
2022/01/01 11:35:32;;;;;;;0.13;0.13;;;12.10;99.90;;;;;;5049152;28;20056;-59
2022/01/01 11:38:03;;;;;;;0.10;0.10;;;12.10;99.90;;;;;;5047818;28;20048;-58
2022/01/01 11:40:43;;;;;;;0.00;0.00;;;12.10;99.90;;;;;;5052071;28;20061;-60
2022/01/01 11:43:35;;;;;;;0.22;0.13;;;12.10;99.90;;;;;;5053693;28;20047;-58
2022/01/01 11:46:06;;;;;;;0.20;0.20;;;12.20;99.90;;;;;;5058892;28;20135;-60
2022/01/01 11:48:38;;;;;;;0.22;0.20;;;12.10;99.90;;;;;;5061673;28;20128;-58
2022/01/01 11:51:33;;;;;;;0.30;0.30;;;13.00;99.90;;;;;;5047511;28;20455;-59
2022/01/01 11:54:24;;;;;;;0.00;0.00;;;12.10;99.90;;;;;;5053596;28;20052;-58
2022/01/01 11:56:50;;;;;;;0.10;0.10;;;12.20;99.90;;;;;;5052372;28;20064;-59
2022/01/01 11:59:24;;;;;;;0.43;0.20;;;12.20;99.90;;;;;;5052602;28;20052;-58
2022/01/01 12:01:53;;;;;;;0.73;0.73;;;12.20;99.90;;;;;;5047674;28;20411;-60
2022/01/01 12:04:38;;;;;;;0.80;0.30;;;12.30;99.90;;;;;;5048119;28;20051;-60
2022/01/01 12:07:20;;;;;;;0.00;0.00;;;12.20;99.90;;;;;;5060716;28;20076;-58
2022/01/01 12:09:55;;;;;;;0.52;0.52;;;12.30;99.90;;;;;;5059337;28;20059;-58
2022/01/01 12:12:39;;;;;;;;;;;12.20;99.90;;;;;;5060100;28;20057;-58
2022/01/01 12:15:07;;;;;;;0.10;0.05;;;12.30;99.90;;;;;;5060120;28;19938;-57
2022/01/01 12:17:43;;;;;;;0.10;0.10;;;12.30;99.90;;;;;;5061055;28;20080;-58
2022/01/01 12:20:13;;;;;;;0.22;0.10;;;12.30;99.90;;;;;;5059990;28;20052;-59
2022/01/01 12:22:39;;;;;;;0.03;0.03;;;12.30;99.90;;;;;;5060156;28;20071;-58
2022/01/01 12:25:07;;;;;;;0.00;0.00;;;12.50;99.90;;;;;;5060439;28;20133;-59
2022/01/01 12:27:47;;;;;;;0.10;0.10;;;12.30;99.90;;;;;;5059031;28;20433;-59
2022/01/01 12:30:36;;;;;;;0.00;0.00;;;12.30;99.90;;;;;;5049815;28;20412;-59
2022/01/01 12:33:03;;;;;;;0.28;0.25;;;12.30;99.90;;;;;;5037892;28;20075;-59
2022/01/01 12:35:40;;;;;;;0.10;0.10;;;12.30;99.90;;;;;;5041724;28;20053;-60
2022/01/01 12:38:07;;;;;;;0.03;0.03;;;12.30;99.90;;;;;;5040872;28;20055;-59
2022/01/01 12:40:33;;;;;;;0.20;0.20;;;12.30;99.90;;;;;;5040384;28;20049;-60
2022/01/01 12:43:11;;;;;;;0.15;0.15;;;12.30;99.90;;;;;;5041051;28;20076;-59
2022/01/01 12:45:38;;;;;;;0.65;0.52;;;12.30;99.90;;;;;;5041160;28;20064;-59
2022/01/01 12:48:05;;;;;;;0.30;0.30;;;12.30;99.90;;;;;;5040630;28;20084;-59
2022/01/01 12:50:31;;;;;;;0.13;0.13;;;12.30;99.90;;;;;;5041266;28;20049;-59
2022/01/01 12:52:57;;;;;;;0.20;0.03;;;12.30;99.90;;;;;;5040733;28;20049;-59
2022/01/01 12:55:26;;;;;;;0.00;0.00;;;12.30;99.90;;;;;;5037324;28;20122;-59
2022/01/01 12:58:10;;;;;;;0.43;0.32;;;12.30;99.90;;;;;;5049282;28;20395;-59
2022/01/01 13:00:38;;;;;;;0.00;0.00;;;12.30;99.90;;;;;;5060058;28;20088;-59